createdAt,value
2022-11-12T00:01:15.977Z,8.5
2022-11-12T00:04:15.976Z,8.5
2022-11-12T00:07:15.997Z,8.5
2022-11-12T00:10:15.972Z,8.5
2022-11-12T00:13:15.976Z,8.5
2022-11-12T00:16:15.977Z,8.5
2022-11-12T00:19:15.977Z,8.5
2022-11-12T00:22:15.973Z,8.5
2022-11-12T00:25:15.977Z,8.5
2022-11-12T00:28:15.972Z,8.5
2022-11-12T00:31:15.979Z,8.5
2022-11-12T00:34:15.974Z,8.5
2022-11-12T00:37:15.970Z,8.5
2022-11-12T00:40:15.970Z,8.5
2022-11-12T00:43:15.966Z,8.5
2022-11-12T00:46:15.968Z,8.6
2022-11-12T00:49:15.965Z,8.6
2022-11-12T00:52:15.966Z,8.6
2022-11-12T00:55:15.964Z,8.6
2022-11-12T00:58:15.967Z,8.6
2022-11-12T01:01:16.029Z,8.6
2022-11-12T01:04:15.968Z,8.6
2022-11-12T01:07:16.007Z,8.6
2022-11-12T01:10:15.963Z,8.6
2022-11-12T01:13:15.967Z,8.6
2022-11-12T01:16:15.979Z,8.6
2022-11-12T01:19:15.963Z,8.6
2022-11-12T01:22:15.958Z,8.6
2022-11-12T01:25:15.957Z,8.6
2022-11-12T01:28:15.955Z,8.6
2022-11-12T01:31:15.959Z,8.6
2022-11-12T01:34:15.953Z,8.6
2022-11-12T01:37:15.964Z,8.6
2022-11-12T01:40:15.947Z,8.6
2022-11-12T01:43:15.946Z,8.6
2022-11-12T01:46:15.951Z,8.6
2022-11-12T01:49:15.947Z,8.6
2022-11-12T01:52:15.940Z,8.6
2022-11-12T01:55:15.947Z,8.6
2022-11-12T01:58:15.941Z,8.6
2022-11-12T02:01:15.970Z,8.6
2022-11-12T02:04:15.938Z,8.5
2022-11-12T02:07:15.975Z,8.5
2022-11-12T02:10:15.924Z,8.5
2022-11-12T02:13:15.924Z,8.5
2022-11-12T02:16:15.929Z,8.5
2022-11-12T02:19:15.926Z,8.5
2022-11-12T02:22:15.922Z,8.4
2022-11-12T02:25:15.926Z,8.4
2022-11-12T02:28:15.929Z,8.4
2022-11-12T02:31:15.928Z,8.4
2022-11-12T02:34:15.931Z,8.4
2022-11-12T02:37:15.926Z,8.4
2022-11-12T02:40:15.928Z,8.4
2022-11-12T02:43:15.933Z,8.4
2022-11-12T02:46:15.929Z,8.4
2022-11-12T02:49:15.924Z,8.4
2022-11-12T02:52:15.916Z,8.4
2022-11-12T02:58:15.910Z,8.4
2022-11-12T03:01:15.969Z,8.4
2022-11-12T03:04:15.920Z,8.4
2022-11-12T03:07:15.945Z,8.4
2022-11-12T03:10:15.908Z,8.4
2022-11-12T03:13:15.920Z,8.4
2022-11-12T03:16:15.910Z,8.4
2022-11-12T03:19:15.912Z,8.4
2022-11-12T03:22:15.916Z,8.4
2022-11-12T03:25:15.907Z,8.4
2022-11-12T03:28:15.904Z,8.4
2022-11-12T03:31:15.901Z,8.4
2022-11-12T03:34:15.901Z,8.4
2022-11-12T03:37:15.897Z,8.4
2022-11-12T03:40:15.898Z,8.4
2022-11-12T03:43:15.893Z,8.4
2022-11-12T03:46:15.897Z,8.4
2022-11-12T03:49:15.894Z,8.4
2022-11-12T03:52:15.900Z,8.4
2022-11-12T03:55:15.905Z,8.5
2022-11-12T03:58:15.892Z,8.5
2022-11-12T04:01:15.946Z,8.4
2022-11-12T04:04:15.892Z,8.5
2022-11-12T04:07:15.927Z,8.5
2022-11-12T04:10:15.885Z,8.5
2022-11-12T04:13:15.891Z,8.5
2022-11-12T04:16:15.889Z,8.5
2022-11-12T04:19:15.882Z,8.5
2022-11-12T04:22:15.890Z,8.5
2022-11-12T04:25:15.882Z,8.5
2022-11-12T04:28:15.877Z,8.5
2022-11-12T04:31:15.882Z,8.5
2022-11-12T04:34:15.884Z,8.5
2022-11-12T04:37:17.791Z,8.5
2022-11-12T04:40:15.881Z,8.5
2022-11-12T04:43:15.874Z,8.5
2022-11-12T04:46:15.876Z,8.5
2022-11-12T04:49:15.875Z,8.5
2022-11-12T04:52:15.878Z,8.5
2022-11-12T04:55:15.879Z,8.5
2022-11-12T04:58:15.868Z,8.4
2022-11-12T05:04:15.879Z,8.4
2022-11-12T05:07:15.895Z,8.4
2022-11-12T05:10:15.871Z,8.4
2022-11-12T05:13:15.867Z,8.4
2022-11-12T05:16:15.873Z,8.4
2022-11-12T05:19:15.873Z,8.4
2022-11-12T05:22:33.602Z,8.4
2022-11-12T05:25:15.870Z,8.4
2022-11-12T05:28:15.979Z,8.3
2022-11-12T05:31:15.901Z,8.3
2022-11-12T05:34:18.673Z,8.3
2022-11-12T05:37:15.909Z,8.3
2022-11-12T05:40:15.906Z,8.3
2022-11-12T05:43:15.904Z,8.3
2022-11-12T05:46:15.906Z,8.3
2022-11-12T05:49:15.918Z,8.3
2022-11-12T05:52:15.895Z,8.3
2022-11-12T05:55:15.893Z,8.3
2022-11-12T05:58:15.893Z,8.3
2022-11-12T06:01:15.901Z,8.3
2022-11-12T06:04:15.891Z,8.3
2022-11-12T06:07:15.986Z,8.3
2022-11-12T06:13:15.895Z,8.3
2022-11-12T06:16:15.900Z,8.3
2022-11-12T06:19:16.748Z,8.3
2022-11-12T06:22:16.735Z,8.2
2022-11-12T06:25:16.737Z,8.2
2022-11-12T06:28:16.755Z,8.2
2022-11-12T06:31:16.733Z,8.2
2022-11-12T06:34:16.720Z,8.2
2022-11-12T06:37:16.729Z,8.2
2022-11-12T06:40:16.717Z,8.2
2022-11-12T06:43:16.709Z,8.2
2022-11-12T06:46:16.708Z,8.2
2022-11-12T06:49:16.699Z,8.2
2022-11-12T06:52:16.923Z,8.2
2022-11-12T06:55:16.706Z,8.2
2022-11-12T06:58:16.702Z,8.2
2022-11-12T07:01:16.817Z,8.2
2022-11-12T07:04:16.703Z,8.2
2022-11-12T07:07:16.750Z,8.2
2022-11-12T07:10:16.701Z,8.2
2022-11-12T07:13:16.697Z,8.2
2022-11-12T07:16:16.708Z,8.2
2022-11-12T07:19:16.695Z,8.2
2022-11-12T07:22:16.713Z,8.2
2022-11-12T07:25:16.705Z,8.2
2022-11-12T07:28:16.695Z,8.2
2022-11-12T07:31:16.699Z,8.2
2022-11-12T07:34:16.692Z,8.2
2022-11-12T07:37:16.706Z,8.2
2022-11-12T07:40:16.699Z,8.2
2022-11-12T07:43:16.695Z,8.2
2022-11-12T07:46:16.693Z,8.2
2022-11-12T07:49:16.695Z,8.2
2022-11-12T07:52:16.682Z,8.2
2022-11-12T07:55:16.681Z,8.2
2022-11-12T07:58:16.694Z,8.2
2022-11-12T08:01:16.725Z,8.2
2022-11-12T08:04:16.689Z,8.2
2022-11-12T08:07:16.724Z,8.2
2022-11-12T08:10:16.672Z,8.2
2022-11-12T08:13:16.671Z,8.2
2022-11-12T08:16:16.671Z,8.2
2022-11-12T08:19:16.683Z,8.2
2022-11-12T08:22:16.666Z,8.2
2022-11-12T08:25:16.682Z,8.2
2022-11-12T08:28:16.662Z,8.2
2022-11-12T08:31:16.670Z,8.2
2022-11-12T08:34:21.481Z,8.2
2022-11-12T08:40:16.653Z,8.2
2022-11-12T08:43:16.647Z,8.2
2022-11-12T08:46:16.653Z,8.2
2022-11-12T08:49:16.643Z,8.2
2022-11-12T08:52:16.644Z,8.2
2022-11-12T08:55:16.646Z,8.2
2022-11-12T08:58:16.653Z,8.2
2022-11-12T09:01:16.666Z,8.2
2022-11-12T09:04:16.637Z,8.1
2022-11-12T09:07:35.652Z,8.1
2022-11-12T09:10:16.643Z,8.2
2022-11-12T09:13:16.636Z,8.2
2022-11-12T09:16:16.645Z,8.2
2022-11-12T09:19:16.637Z,8.2
2022-11-12T09:22:16.636Z,8.2
2022-11-12T09:25:16.625Z,8.2
2022-11-12T09:28:16.631Z,8.2
2022-11-12T09:31:16.631Z,8.2
2022-11-12T09:34:16.673Z,8.2
2022-11-12T09:37:16.618Z,8.2
2022-11-12T09:40:16.622Z,8.2
2022-11-12T09:43:16.619Z,8.2
2022-11-12T09:46:27.914Z,8.2
2022-11-12T09:49:16.619Z,8.2
2022-11-12T09:52:16.621Z,8.2
2022-11-12T09:55:16.620Z,8.2
2022-11-12T09:58:16.610Z,8.2
2022-11-12T10:01:16.633Z,8.2
2022-11-12T10:04:16.608Z,8.2
2022-11-12T10:07:16.633Z,8.2
2022-11-12T10:10:16.657Z,8.2
2022-11-12T10:13:16.607Z,8.2
2022-11-12T10:16:16.604Z,8.2
2022-11-12T10:19:16.600Z,8.2
2022-11-12T10:22:16.602Z,8.3
2022-11-12T10:25:16.633Z,8.3
2022-11-12T10:28:16.607Z,8.3
2022-11-12T10:31:16.595Z,8.3
2022-11-12T10:34:16.600Z,8.3
2022-11-12T10:37:16.657Z,8.3
2022-11-12T10:40:16.649Z,8.3
2022-11-12T10:43:16.668Z,8.3
2022-11-12T10:46:16.664Z,8.3
2022-11-12T10:49:16.654Z,8.3
2022-11-12T10:52:16.653Z,8.3
2022-11-12T10:55:16.656Z,8.4
2022-11-12T10:58:16.681Z,8.4
2022-11-12T11:01:16.654Z,8.4
2022-11-12T11:04:16.627Z,8.4
2022-11-12T11:07:16.649Z,8.4
2022-11-12T11:10:16.671Z,8.4
2022-11-12T11:16:16.635Z,8.4
2022-11-12T11:19:16.707Z,8.4
2022-11-12T11:22:16.717Z,8.4
2022-11-12T11:25:16.713Z,8.4
2022-11-12T11:28:16.708Z,8.4
2022-11-12T11:31:16.710Z,8.4
2022-11-12T11:34:16.707Z,8.5
2022-11-12T11:37:16.704Z,8.5
2022-11-12T11:40:16.708Z,8.5
2022-11-12T11:43:16.709Z,8.5
2022-11-12T11:46:16.706Z,8.5
2022-11-12T11:49:16.707Z,8.5
2022-11-12T11:52:16.706Z,8.6
2022-11-12T11:55:16.707Z,8.6
2022-11-12T11:58:16.714Z,8.6
2022-11-12T12:01:16.698Z,8.6
2022-11-12T12:07:16.728Z,8.6
2022-11-12T12:10:16.702Z,8.6
2022-11-12T12:13:16.695Z,8.7
2022-11-12T12:16:16.693Z,8.7
2022-11-12T12:19:16.696Z,8.7
2022-11-12T12:22:16.699Z,8.7
2022-11-12T12:25:16.685Z,8.7
2022-11-12T12:28:16.677Z,8.8
2022-11-12T12:31:16.680Z,8.8
2022-11-12T12:34:16.668Z,8.8
2022-11-12T12:37:16.667Z,8.8
2022-11-12T12:40:16.660Z,8.8
2022-11-12T12:43:16.784Z,8.9
2022-11-12T12:46:16.663Z,8.9
2022-11-12T12:49:16.650Z,8.9
2022-11-12T12:52:16.657Z,8.9
2022-11-12T12:55:16.661Z,8.9
2022-11-12T12:58:16.650Z,8.9
2022-11-12T13:01:16.763Z,8.9
2022-11-12T13:04:16.649Z,8.9
2022-11-12T13:07:16.718Z,8.9
2022-11-12T13:10:16.658Z,8.9
2022-11-12T13:13:16.656Z,8.9
2022-11-12T13:16:16.654Z,8.9
2022-11-12T13:19:16.654Z,8.9
2022-11-12T13:22:16.653Z,9
2022-11-12T13:25:16.655Z,9
2022-11-12T13:28:16.658Z,9
2022-11-12T13:31:16.657Z,9
2022-11-12T13:34:16.650Z,9
2022-11-12T13:37:16.656Z,9
2022-11-12T13:40:16.646Z,9
2022-11-12T13:43:16.642Z,9
2022-11-12T13:46:16.642Z,9
2022-11-12T13:49:16.641Z,9
2022-11-12T13:52:16.641Z,9
2022-11-12T13:55:16.643Z,9
2022-11-12T13:58:16.636Z,9
2022-11-12T14:01:16.650Z,9
2022-11-12T14:04:16.638Z,9
2022-11-12T14:07:16.663Z,9
2022-11-12T14:10:16.635Z,9
2022-11-12T14:13:16.633Z,9
2022-11-12T14:16:16.646Z,9
2022-11-12T14:19:16.630Z,9
2022-11-12T14:22:16.626Z,9
2022-11-12T14:25:16.627Z,9
2022-11-12T14:28:16.631Z,9
2022-11-12T14:31:16.626Z,9
2022-11-12T14:34:16.628Z,9
2022-11-12T14:37:16.631Z,9
2022-11-12T14:40:16.624Z,9
2022-11-12T14:43:18.648Z,9
2022-11-12T14:49:16.620Z,9
2022-11-12T14:52:16.622Z,9
2022-11-12T14:55:16.623Z,9
2022-11-12T14:58:16.624Z,9
2022-11-12T15:01:38.241Z,8.9
2022-11-12T15:04:16.618Z,8.9
2022-11-12T15:07:16.668Z,8.9
2022-11-12T15:10:16.613Z,8.9
2022-11-12T15:13:16.610Z,8.9
2022-11-12T15:16:16.614Z,8.9
2022-11-12T15:19:16.615Z,8.9
2022-11-12T15:22:16.614Z,8.8
2022-11-12T15:25:16.657Z,8.8
2022-11-12T15:28:16.607Z,8.8
2022-11-12T15:31:16.612Z,8.8
2022-11-12T15:34:16.605Z,8.8
2022-11-12T15:37:16.644Z,8.7
2022-11-12T15:40:16.617Z,8.7
2022-11-12T15:43:16.629Z,8.7
2022-11-12T15:46:16.632Z,8.7
2022-11-12T15:52:16.621Z,8.7
2022-11-12T15:55:16.621Z,8.6
2022-11-12T15:58:16.641Z,8.6
2022-11-12T16:01:16.688Z,8.6
2022-11-12T16:04:16.605Z,8.6
2022-11-12T16:07:16.650Z,8.6
2022-11-12T16:10:16.605Z,8.6
2022-11-12T16:13:16.607Z,8.5
2022-11-12T16:16:16.604Z,8.5
2022-11-12T16:19:16.608Z,8.5
2022-11-12T16:22:16.605Z,8.5
2022-11-12T16:25:16.603Z,8.5
2022-11-12T16:28:16.601Z,8.5
2022-11-12T16:31:16.604Z,8.5
2022-11-12T16:34:16.597Z,8.5
2022-11-12T16:37:16.598Z,8.5
2022-11-12T16:40:16.591Z,8.5
2022-11-12T16:43:16.601Z,8.5
2022-11-12T16:46:16.591Z,8.5
2022-11-12T16:49:16.620Z,8.5
2022-11-12T16:52:16.588Z,8.5
2022-11-12T16:55:16.584Z,8.5
2022-11-12T16:58:16.588Z,8.5
2022-11-12T17:01:16.606Z,8.4
2022-11-12T17:04:16.583Z,8.4
2022-11-12T17:07:16.610Z,8.4
2022-11-12T17:10:16.582Z,8.4
2022-11-12T17:13:16.575Z,8.4
2022-11-12T17:16:16.584Z,8.4
2022-11-12T17:19:16.575Z,8.4
2022-11-12T17:22:16.584Z,8.4
2022-11-12T17:25:16.582Z,8.4
2022-11-12T17:28:16.599Z,8.4
2022-11-12T17:31:16.594Z,8.4
2022-11-12T17:34:16.579Z,8.4
2022-11-12T17:37:16.587Z,8.3
2022-11-12T17:40:16.577Z,8.3
2022-11-12T17:43:16.598Z,8.3
2022-11-12T17:46:16.576Z,8.3
2022-11-12T17:49:16.576Z,8.3
2022-11-12T17:52:16.590Z,8.3
2022-11-12T17:55:16.664Z,8.3
2022-11-12T17:58:16.577Z,8.3
2022-11-12T18:01:16.585Z,8.3
2022-11-12T18:04:16.669Z,8.3
2022-11-12T18:07:16.640Z,8.3
2022-11-12T18:10:19.334Z,8.2
2022-11-12T18:13:16.569Z,8.2
2022-11-12T18:16:16.575Z,8.2
2022-11-12T18:19:16.619Z,8.2
2022-11-12T18:22:16.600Z,8.2
2022-11-12T18:25:16.580Z,8.2
2022-11-12T18:28:16.573Z,8.2
2022-11-12T18:31:16.577Z,8.2
2022-11-12T18:34:16.574Z,8.2
2022-11-12T18:37:16.570Z,8.2
2022-11-12T18:40:16.564Z,8.2
2022-11-12T18:43:16.569Z,8.2
2022-11-12T18:46:16.582Z,8.2
2022-11-12T18:49:16.566Z,8.2
2022-11-12T18:52:16.576Z,8.2
2022-11-12T18:55:16.569Z,8.2
2022-11-12T19:01:16.665Z,8.2
2022-11-12T19:04:16.562Z,8.2
2022-11-12T19:07:16.655Z,8.2
2022-11-12T19:10:16.558Z,8.2
2022-11-12T19:13:16.561Z,8.2
2022-11-12T19:16:16.560Z,8.2
2022-11-12T19:19:16.561Z,8.1
2022-11-12T19:22:16.562Z,8.1
2022-11-12T19:25:16.558Z,8.1
2022-11-12T19:28:16.556Z,8.1
2022-11-12T19:31:16.556Z,8.1
2022-11-12T19:34:16.580Z,8.1
2022-11-12T19:40:16.553Z,8.1
2022-11-12T19:43:16.544Z,8.1
2022-11-12T19:46:16.557Z,8.1
2022-11-12T19:49:16.551Z,8.1
2022-11-12T19:52:16.546Z,8.1
2022-11-12T19:55:16.569Z,8.1
2022-11-12T19:58:16.553Z,8.1
2022-11-12T20:01:16.605Z,8.1
2022-11-12T20:04:20.135Z,8.1
2022-11-12T20:07:16.633Z,8.1
2022-11-12T20:10:16.538Z,8.1
2022-11-12T20:13:16.538Z,8.1
2022-11-12T20:16:19.598Z,8.1
2022-11-12T20:19:16.543Z,8.1
2022-11-12T20:22:16.531Z,8.1
2022-11-12T20:25:16.536Z,8.1
2022-11-12T20:28:16.540Z,8.1
2022-11-12T20:31:16.532Z,8
2022-11-12T20:34:16.535Z,8
2022-11-12T20:37:16.535Z,8
2022-11-12T20:40:16.529Z,8
2022-11-12T20:43:16.528Z,8
2022-11-12T20:46:16.528Z,8
2022-11-12T20:49:16.536Z,8
2022-11-12T20:52:16.524Z,8
2022-11-12T20:55:16.540Z,7.9
2022-11-12T20:58:16.526Z,7.9
2022-11-12T21:01:16.553Z,7.9
2022-11-12T21:04:16.526Z,7.9
2022-11-12T21:07:16.579Z,7.9
2022-11-12T21:10:16.516Z,7.9
2022-11-12T21:13:16.520Z,7.9
2022-11-12T21:16:16.522Z,7.9
2022-11-12T21:19:16.521Z,7.9
2022-11-12T21:22:16.516Z,7.9
2022-11-12T21:25:16.507Z,7.9
2022-11-12T21:28:16.533Z,7.9
2022-11-12T21:31:16.512Z,7.9
2022-11-12T21:34:16.521Z,7.9
2022-11-12T21:37:16.516Z,7.8
2022-11-12T21:40:16.502Z,7.8
2022-11-12T21:43:16.509Z,7.8
2022-11-12T21:46:16.512Z,7.9
2022-11-12T21:49:16.508Z,7.8
2022-11-12T21:52:16.504Z,7.8
2022-11-12T21:55:16.501Z,7.8
2022-11-12T22:01:16.508Z,7.8
2022-11-12T22:04:18.401Z,7.8
2022-11-12T22:07:16.510Z,7.8
2022-11-12T22:10:16.496Z,7.8
2022-11-12T22:13:26.276Z,7.8
2022-11-12T22:16:16.500Z,7.8
2022-11-12T22:19:16.502Z,7.8
2022-11-12T22:22:16.493Z,7.8
2022-11-12T22:25:16.500Z,7.8
2022-11-12T22:28:16.499Z,7.8
2022-11-12T22:31:16.493Z,7.8
2022-11-12T22:34:16.489Z,7.7
2022-11-12T22:37:16.493Z,7.7
2022-11-12T22:40:16.487Z,7.7
2022-11-12T22:43:16.493Z,7.7
2022-11-12T22:46:16.493Z,7.7
2022-11-12T22:49:16.488Z,7.7
2022-11-12T22:52:16.493Z,7.7
2022-11-12T22:55:16.487Z,7.6
2022-11-12T22:58:16.483Z,7.6
2022-11-12T23:01:16.584Z,7.6
2022-11-12T23:04:16.487Z,7.6
2022-11-12T23:07:16.533Z,7.6
2022-11-12T23:10:16.482Z,7.5
2022-11-12T23:13:16.482Z,7.5
2022-11-12T23:16:16.480Z,7.5
2022-11-12T23:19:16.476Z,7.5
2022-11-12T23:22:16.476Z,7.5
2022-11-12T23:25:16.482Z,7.5
2022-11-12T23:28:16.483Z,7.5
2022-11-12T23:31:16.469Z,7.5
2022-11-12T23:34:16.472Z,7.4
2022-11-12T23:37:16.469Z,7.4
2022-11-12T23:40:16.469Z,7.4
2022-11-12T23:43:16.472Z,7.4
2022-11-12T23:46:16.468Z,7.4
2022-11-12T23:49:16.463Z,7.4
2022-11-12T23:52:18.642Z,7.4
2022-11-12T23:55:16.453Z,7.4
2022-11-12T23:58:16.455Z,7.4
